College Station, Texas
Current Conditions -  °F | °C
As of 1:53 PM on Friday 28 Nov 2014 (Local Time) from KCLL Reporting Station
Broken Clouds Broken Clouds  
Wind Chill: 70°   Ceiling: 4300
Heat Index: 70°   Visibility: 10mi
Dew Point: 53°   Wind: 18mph
Humidity: 55%   Direction: 200°SSW
Pressure: 30.17"   Gusts: 25mph
Location:  30.62°N, 96.32°W
Report Text: KCLL 281953Z 20016G22KT 10SM BKN043 21/12 A3017 RMK AO2 SLP213 T02110117
Loading
Personal Weather Stations






























Interactive Weather Map New forecast layout! Learn more

10-Day Weather Forecast

Advertisements
Track Severe Weather on mobile